Ana Sayfa
METAR-TAF:

METAR-TAF

Havaalanları :

Cotulla, Teksas, Amerika Birleşik Devletleri

Enlem: 28-27-30N, Boylam: 099-13-13W, yükseklik: 145 m

Güncel hava durumu gözlemi

Rapor saat 22:53 UTC de 37 dakika önce yapıldı.
Rüzgar değişken yönden 6 kt
Sıcaklık 28°C
Nem 25%
Basınç 1013 hPa
Görüş mesafesi: 16.1 km
Açık gökyüzü

METAR: KCOT 262253Z AUTO VRB06KT 10SM CLR 28/06 A2992 RMK AO2 SLP124 T02830061

Saat: 17:30 (23:30 UTC)

Tahmin

Rapor saat 17:22 UTC de 6 saat ve 8 dakika önce yapıldı.
Ayın 26'si saat 18 UTC'den ayın 27'si saat 18 UTC'ye kadar geçerli Tahmin
Rüzgar batı/kuzeybatıdan 6 kt
Görüş mesafesi: 10 km
Açık gökyüzü
Ayın 27'si saat 0600 UTC'den
Rüzgar değişken yönden 4 kt
Görüş mesafesi: 9.7 km
2000 ft yükseklikte az bulutlu
Pus
Ayın 27'si saat 1400 UTC'den
Rüzgar doğu/güneydoğudan 6 kt
Görüş mesafesi: 10 km
Açık gökyüzü

TAF: KCOT 261722Z 2618/2718 29006KT P6SM SKC FM270600 VRB04KT 6SM BR FEW020 FM271400 12006KT P6SM SKC

4.000'den fazla havaalanı için hava durumu gözlemleri ve tahminleri (METAR ve TAF raporları).

Kullanılabilir istasyonlar harita üzerinde sarı ve kırmızı noktalarla gösterilir.

İstasyonun adını görmek için fareyi noktanın üzerinde gezdirin.

Sonrasında hava gözlem ve tahminlerini görmek için tıklayın.

Haritayı değiştirmek için: yaklaştırmak için siyah artı işaretli yeşil düğmeye ve uzaklaştırmak için de eksi işaretli düğmeye hızla tıklayın; bitişik haritalar için yeşil okları kullanın.


METAR-TAF: